Bookmark and Share
Track history (hours):
 

Platitera Tonouranon

Last reported at 2014-Apr-23 07:03 UTC. Time now 2014-Apr-23 13:15 UTC.
Position N 37°36' E 023°34'.

Length 55 m; draft 3.8 m.

Type: Ship (hazmat cat A). MMSI: 237038200.

NotesDate/timePositionNaut miles runAvg speedWind from/ knotsBaromVisibWave heightAir tempDewpointWater temp
2014-Apr-23 07:03N 37°36' E 023°34'612.0
2014-Apr-23 06:33N 37°42' E 023°36'1211.9
2014-Apr-23 05:33N 37°53' E 023°40'3 3.1
2014-Apr-23 04:33N 37°56' E 023°41'0 0.0
2014-Apr-22 16:33N 37°56' E 023°41'1010.3
2014-Apr-22 15:33N 37°49' E 023°32'7 0.7
2014-Apr-22 06:23N 37°43' E 023°35'1012.0
2014-Apr-22 05:33N 37°52' E 023°38'4 4.3
2014-Apr-22 04:32N 37°56' E 023°41'1 0.1
2014-Apr-21 16:33N 37°56' E 023°40'1211.7
2014-Apr-21 15:33N 37°48' E 023°29'5 0.5
2014-Apr-21 06:26N 37°46' E 023°35'1111.8
2014-Apr-21 05:33N 37°56' E 023°40'1 0.7
2014-Apr-21 04:33N 37°56' E 023°41'0 0.0
2014-Apr-20 17:16N 37°56' E 023°41'5 6.8
2014-Apr-20 16:33N 37°53' E 023°37'1211.7
2014-Apr-20 15:32N 37°46' E 023°25'1 0.4
2014-Apr-20 13:15N 37°45' E 023°25'9 1.3
2014-Apr-20 06:25N 37°44' E 023°36'1011.9
2014-Apr-20 05:33N 37°54' E 023°40'2 2.1
2014-Apr-20 04:33N 37°56' E 023°41'0 0.0
2014-Apr-19 16:33N 37°56' E 023°41'1010.2
2014-Apr-19 15:33N 37°50' E 023°31'9 1.0
2014-Apr-19 06:28N 37°42' E 023°35'1111.8
2014-Apr-19 05:33N 37°52' E 023°40'4 3.9
2014-Apr-19 04:31N 37°56' E 023°41'2 0.2
2014-Apr-18 16:33N 37°55' E 023°39'1211.6
2014-Apr-18 15:33N 37°47' E 023°27'6 0.6
2014-Apr-18 06:20N 37°45' E 023°34'911.9
2014-Apr-18 05:33N 37°54' E 023°38'4 3.5
2014-Apr-18 04:33N 37°56' E 023°41'0 0.0
2014-Apr-17 17:05N 37°56' E 023°41'4 6.7
2014-Apr-17 16:33N 37°53' E 023°40'1212.0
2014-Apr-17 15:33N 37°41' E 023°36'10 1.2
2014-Apr-17 07:25N 37°45' E 023°25'1011.6
2014-Apr-17 06:33N 37°52' E 023°35'7 6.7
2014-Apr-17 05:33N 37°56' E 023°41'0 0.0
2014-Apr-17 04:31N 37°56' E 023°41'0 0.0
2014-Apr-16 16:33N 37°56' E 023°41'9 8.8
2014-Apr-16 15:33N 37°49' E 023°34'6 0.6
2014-Apr-16 06:23N 37°43' E 023°35'1011.8
2014-Apr-16 05:33N 37°53' E 023°39'4 3.8
2014-Apr-16 04:30N 37°56' E 023°41'0 0.0
2014-Apr-15 16:31N 37°56' E 023°41'1111.1
2014-Apr-15 15:33N 37°48' E 023°32'8 0.8
2014-Apr-15 05:33N 37°41' E 023°36'15 1.1
2014-Apr-14 15:33N 37°56' E 023°41'1010.4
2014-Apr-14 14:33N 37°49' E 023°32'10 0.5
2014-Apr-13 16:31N 37°56' E 023°41'1111.2
2014-Apr-13 15:33N 37°49' E 023°30'  

Dump ship's entire track history

sailing weather and tide predictions

Platitera Tonouranon — SX7180 — position and weather